sensor_id;sensor_type;location;lat;lon;timestamp;pressure;altitude;pressure_sealevel;temperature;humidity
10720;BME280;5411;58.386;15.560;2023-04-19T00:01:26;102601.06;;;6.12;68.56
10720;BME280;5411;58.386;15.560;2023-04-19T00:03:59;102592.81;;;6.04;68.35
10720;BME280;5411;58.386;15.560;2023-04-19T00:06:30;102592.19;;;6.00;69.81
10720;BME280;5411;58.386;15.560;2023-04-19T00:09:01;102593.03;;;6.01;68.88
10720;BME280;5411;58.386;15.560;2023-04-19T00:11:33;102584.69;;;5.94;69.88
10720;BME280;5411;58.386;15.560;2023-04-19T00:14:02;102580.47;;;5.92;69.55
10720;BME280;5411;58.386;15.560;2023-04-19T00:16:39;102595.56;;;5.91;70.51
10720;BME280;5411;58.386;15.560;2023-04-19T00:19:10;102578.97;;;5.88;70.52
10720;BME280;5411;58.386;15.560;2023-04-19T00:21:42;102577.53;;;5.84;69.97
10720;BME280;5411;58.386;15.560;2023-04-19T00:24:11;102576.78;;;5.82;70.90
10720;BME280;5411;58.386;15.560;2023-04-19T00:26:40;102577.97;;;5.78;71.13
10720;BME280;5411;58.386;15.560;2023-04-19T00:29:09;102566.88;;;5.72;70.93
10720;BME280;5411;58.386;15.560;2023-04-19T00:31:38;102576.78;;;5.70;70.44
10720;BME280;5411;58.386;15.560;2023-04-19T00:34:07;102569.13;;;5.66;71.05
10720;BME280;5411;58.386;15.560;2023-04-19T00:36:36;102559.59;;;5.63;70.81
10720;BME280;5411;58.386;15.560;2023-04-19T00:39:11;102564.44;;;5.58;71.83
10720;BME280;5411;58.386;15.560;2023-04-19T00:41:44;102575.63;;;5.62;72.13
10720;BME280;5411;58.386;15.560;2023-04-19T00:44:14;102568.03;;;5.57;72.11
10720;BME280;5411;58.386;15.560;2023-04-19T00:46:43;102564.75;;;5.54;72.04
10720;BME280;5411;58.386;15.560;2023-04-19T00:49:15;102578.03;;;5.54;72.01
10720;BME280;5411;58.386;15.560;2023-04-19T00:51:44;102565.09;;;5.49;72.27
10720;BME280;5411;58.386;15.560;2023-04-19T00:54:14;102567.16;;;5.46;72.93
10720;BME280;5411;58.386;15.560;2023-04-19T00:56:46;102568.97;;;5.45;73.46
10720;BME280;5411;58.386;15.560;2023-04-19T00:59:29;102557.09;;;5.38;73.75
10720;BME280;5411;58.386;15.560;2023-04-19T01:01:58;102572.06;;;5.39;73.64
10720;BME280;5411;58.386;15.560;2023-04-19T01:04:28;102565.06;;;5.38;74.69
10720;BME280;5411;58.386;15.560;2023-04-19T01:07:00;102555.88;;;5.31;74.14
10720;BME280;5411;58.386;15.560;2023-04-19T01:09:34;102561.88;;;5.33;74.24
10720;BME280;5411;58.386;15.560;2023-04-19T01:12:14;102556.44;;;5.23;75.29
10720;BME280;5411;58.386;15.560;2023-04-19T01:14:43;102564.38;;;5.23;75.15
10720;BME280;5411;58.386;15.560;2023-04-19T01:17:13;102561.94;;;5.20;76.31
10720;BME280;5411;58.386;15.560;2023-04-19T01:20:08;102556.47;;;5.11;76.39
10720;BME280;5411;58.386;15.560;2023-04-19T01:22:44;102559.25;;;5.09;77.15
10720;BME280;5411;58.386;15.560;2023-04-19T01:25:12;102558.50;;;5.07;77.94
10720;BME280;5411;58.386;15.560;2023-04-19T01:27:42;102556.09;;;5.04;77.96
10720;BME280;5411;58.386;15.560;2023-04-19T01:30:12;102559.72;;;5.03;77.74
10720;BME280;5411;58.386;15.560;2023-04-19T01:32:41;102555.59;;;4.99;78.35
10720;BME280;5411;58.386;15.560;2023-04-19T01:35:11;102559.31;;;4.96;78.62
10720;BME280;5411;58.386;15.560;2023-04-19T01:37:43;102551.69;;;4.92;78.65
10720;BME280;5411;58.386;15.560;2023-04-19T01:40:13;102541.19;;;4.90;78.99
10720;BME280;5411;58.386;15.560;2023-04-19T01:42:42;102552.66;;;4.91;78.85
10720;BME280;5411;58.386;15.560;2023-04-19T01:45:11;102562.53;;;4.89;79.66
10720;BME280;5411;58.386;15.560;2023-04-19T01:47:40;102558.41;;;4.85;79.68
10720;BME280;5411;58.386;15.560;2023-04-19T01:50:10;102558.72;;;4.80;80.20
10720;BME280;5411;58.386;15.560;2023-04-19T01:52:52;102555.94;;;4.82;80.07
10720;BME280;5411;58.386;15.560;2023-04-19T01:55:22;102562.09;;;4.82;80.72
10720;BME280;5411;58.386;15.560;2023-04-19T01:57:52;102561.59;;;4.77;80.54
10720;BME280;5411;58.386;15.560;2023-04-19T02:00:25;102554.94;;;4.72;81.22
10720;BME280;5411;58.386;15.560;2023-04-19T02:02:58;102560.56;;;4.67;81.02
10720;BME280;5411;58.386;15.560;2023-04-19T02:05:31;102559.72;;;4.66;81.61
10720;BME280;5411;58.386;15.560;2023-04-19T02:08:03;102566.81;;;4.66;81.28
10720;BME280;5411;58.386;15.560;2023-04-19T02:10:34;102566.22;;;4.62;81.96
10720;BME280;5411;58.386;15.560;2023-04-19T02:13:08;102572.97;;;4.66;81.09
10720;BME280;5411;58.386;15.560;2023-04-19T02:15:50;102571.72;;;4.59;81.47
10720;BME280;5411;58.386;15.560;2023-04-19T02:18:25;102570.66;;;4.62;81.57
10720;BME280;5411;58.386;15.560;2023-04-19T02:21:02;102562.19;;;4.57;81.92
10720;BME280;5411;58.386;15.560;2023-04-19T02:23:34;102559.72;;;4.54;81.62
10720;BME280;5411;58.386;15.560;2023-04-19T02:26:06;102565.69;;;4.57;82.14
10720;BME280;5411;58.386;15.560;2023-04-19T02:28:38;102566.72;;;4.55;82.11
10720;BME280;5411;58.386;15.560;2023-04-19T02:31:06;102560.19;;;4.48;83.15
10720;BME280;5411;58.386;15.560;2023-04-19T02:33:36;102565.38;;;4.49;83.42
10720;BME280;5411;58.386;15.560;2023-04-19T02:36:08;102550.13;;;4.40;83.83
10720;BME280;5411;58.386;15.560;2023-04-19T02:38:39;102556.25;;;4.41;83.45
10720;BME280;5411;58.386;15.560;2023-04-19T02:41:08;102554.34;;;4.43;83.74
10720;BME280;5411;58.386;15.560;2023-04-19T02:43:36;102560.50;;;4.43;84.00
10720;BME280;5411;58.386;15.560;2023-04-19T02:46:06;102553.00;;;4.37;84.17
10720;BME280;5411;58.386;15.560;2023-04-19T02:48:36;102560.97;;;4.37;84.70
10720;BME280;5411;58.386;15.560;2023-04-19T02:51:05;102555.00;;;4.34;84.74
10720;BME280;5411;58.386;15.560;2023-04-19T02:53:35;102552.78;;;4.27;85.77
10720;BME280;5411;58.386;15.560;2023-04-19T02:56:06;102551.81;;;4.28;85.58
10720;BME280;5411;58.386;15.560;2023-04-19T02:58:36;102548.69;;;4.23;85.71
10720;BME280;5411;58.386;15.560;2023-04-19T03:01:05;102559.28;;;4.23;85.47
10720;BME280;5411;58.386;15.560;2023-04-19T03:03:34;102553.97;;;4.23;85.82
10720;BME280;5411;58.386;15.560;2023-04-19T03:06:11;102537.34;;;4.21;85.61
10720;BME280;5411;58.386;15.560;2023-04-19T03:08:41;102536.91;;;4.15;85.56
10720;BME280;5411;58.386;15.560;2023-04-19T03:11:14;102532.56;;;4.14;85.28
10720;BME280;5411;58.386;15.560;2023-04-19T03:13:52;102548.34;;;4.15;85.82
10720;BME280;5411;58.386;15.560;2023-04-19T03:16:21;102538.09;;;4.11;86.82
10720;BME280;5411;58.386;15.560;2023-04-19T03:18:52;102541.78;;;4.08;86.75
10720;BME280;5411;58.386;15.560;2023-04-19T03:21:21;102545.41;;;4.07;87.17
10720;BME280;5411;58.386;15.560;2023-04-19T03:23:55;102551.66;;;4.06;86.80
10720;BME280;5411;58.386;15.560;2023-04-19T03:26:28;102535.31;;;4.00;87.05
10720;BME280;5411;58.386;15.560;2023-04-19T03:28:57;102539.78;;;3.99;87.42
10720;BME280;5411;58.386;15.560;2023-04-19T03:31:39;102546.75;;;4.00;87.84
10720;BME280;5411;58.386;15.560;2023-04-19T03:34:08;102544.09;;;4.00;87.81
10720;BME280;5411;58.386;15.560;2023-04-19T03:36:39;102542.66;;;3.96;88.23
10720;BME280;5411;58.386;15.560;2023-04-19T03:39:25;102546.16;;;3.97;87.99
10720;BME280;5411;58.386;15.560;2023-04-19T03:41:56;102551.44;;;3.97;88.30
10720;BME280;5411;58.386;15.560;2023-04-19T03:44:33;102558.34;;;3.99;88.79
10720;BME280;5411;58.386;15.560;2023-04-19T03:47:04;102545.50;;;3.93;88.61
10720;BME280;5411;58.386;15.560;2023-04-19T03:49:47;102553.44;;;3.93;88.92
10720;BME280;5411;58.386;15.560;2023-04-19T03:52:19;102548.91;;;3.95;89.50
10720;BME280;5411;58.386;15.560;2023-04-19T03:54:49;102552.81;;;4.02;89.27
10720;BME280;5411;58.386;15.560;2023-04-19T03:57:22;102553.25;;;4.09;89.36
10720;BME280;5411;58.386;15.560;2023-04-19T03:59:52;102559.38;;;4.09;89.45
10720;BME280;5411;58.386;15.560;2023-04-19T04:02:33;102548.03;;;4.07;89.43
10720;BME280;5411;58.386;15.560;2023-04-19T04:05:12;102553.97;;;4.11;89.46
10720;BME280;5411;58.386;15.560;2023-04-19T04:07:43;102559.03;;;4.14;89.23
10720;BME280;5411;58.386;15.560;2023-04-19T04:10:12;102560.13;;;4.24;88.82
10720;BME280;5411;58.386;15.560;2023-04-19T04:12:42;102549.53;;;4.24;89.32
10720;BME280;5411;58.386;15.560;2023-04-19T04:15:29;102553.63;;;4.28;89.02
10720;BME280;5411;58.386;15.560;2023-04-19T04:17:58;102545.56;;;4.29;89.06
10720;BME280;5411;58.386;15.560;2023-04-19T04:20:27;102551.41;;;4.35;88.54
10720;BME280;5411;58.386;15.560;2023-04-19T04:23:01;102562.19;;;4.44;88.36
10720;BME280;5411;58.386;15.560;2023-04-19T04:25:30;102557.75;;;4.45;88.27
10720;BME280;5411;58.386;15.560;2023-04-19T04:28:10;102557.75;;;4.45;88.15
10720;BME280;5411;58.386;15.560;2023-04-19T04:30:38;102565.28;;;4.51;87.62
10720;BME280;5411;58.386;15.560;2023-04-19T04:33:19;102563.97;;;4.56;87.74
10720;BME280;5411;58.386;15.560;2023-04-19T04:35:56;102570.03;;;4.58;87.07
10720;BME280;5411;58.386;15.560;2023-04-19T04:38:29;102569.72;;;4.63;86.83
10720;BME280;5411;58.386;15.560;2023-04-19T04:41:00;102573.19;;;4.63;85.98
10720;BME280;5411;58.386;15.560;2023-04-19T04:43:33;102578.91;;;4.70;86.50
10720;BME280;5411;58.386;15.560;2023-04-19T04:46:16;102569.25;;;4.69;85.96
10720;BME280;5411;58.386;15.560;2023-04-19T04:48:52;102559.84;;;4.65;86.27
10720;BME280;5411;58.386;15.560;2023-04-19T04:51:23;102574.13;;;4.75;85.67
10720;BME280;5411;58.386;15.560;2023-04-19T04:53:54;102569.66;;;4.76;85.29
10720;BME280;5411;58.386;15.560;2023-04-19T04:56:24;102581.41;;;4.84;85.06
10720;BME280;5411;58.386;15.560;2023-04-19T04:58:55;102562.09;;;4.82;84.87
10720;BME280;5411;58.386;15.560;2023-04-19T05:01:27;102576.41;;;4.92;84.90
10720;BME280;5411;58.386;15.560;2023-04-19T05:03:58;102574.59;;;4.93;84.75
10720;BME280;5411;58.386;15.560;2023-04-19T05:06:29;102575.22;;;4.96;83.79
10720;BME280;5411;58.386;15.560;2023-04-19T05:09:00;102583.22;;;5.08;83.88
10720;BME280;5411;58.386;15.560;2023-04-19T05:11:29;102580.03;;;5.15;83.69
10720;BME280;5411;58.386;15.560;2023-04-19T05:14:00;102576.44;;;5.16;83.44
10720;BME280;5411;58.386;15.560;2023-04-19T05:16:29;102580.41;;;5.22;82.83
10720;BME280;5411;58.386;15.560;2023-04-19T05:18:58;102581.16;;;5.24;83.26
10720;BME280;5411;58.386;15.560;2023-04-19T05:21:35;102578.91;;;5.30;82.98
10720;BME280;5411;58.386;15.560;2023-04-19T05:24:04;102574.81;;;5.37;83.08
10720;BME280;5411;58.386;15.560;2023-04-19T05:26:36;102565.69;;;5.42;82.48
10720;BME280;5411;58.386;15.560;2023-04-19T05:29:08;102570.41;;;5.49;82.15
10720;BME280;5411;58.386;15.560;2023-04-19T05:31:38;102565.97;;;5.61;82.01
10720;BME280;5411;58.386;15.560;2023-04-19T05:34:07;102571.09;;;5.75;81.64
10720;BME280;5411;58.386;15.560;2023-04-19T05:36:40;102581.25;;;5.81;80.57
10720;BME280;5411;58.386;15.560;2023-04-19T05:39:09;102564.59;;;5.79;80.57
10720;BME280;5411;58.386;15.560;2023-04-19T05:41:46;102578.13;;;5.87;79.89
10720;BME280;5411;58.386;15.560;2023-04-19T05:44:36;102566.78;;;5.85;79.38
10720;BME280;5411;58.386;15.560;2023-04-19T05:47:14;102578.03;;;5.89;79.06
10720;BME280;5411;58.386;15.560;2023-04-19T05:49:47;102578.53;;;5.94;78.97
10720;BME280;5411;58.386;15.560;2023-04-19T05:52:32;102569.59;;;5.95;79.37
10720;BME280;5411;58.386;15.560;2023-04-19T05:55:00;102578.94;;;6.12;78.63
10720;BME280;5411;58.386;15.560;2023-04-19T05:57:32;102585.84;;;6.25;77.82
10720;BME280;5411;58.386;15.560;2023-04-19T06:00:08;102573.03;;;6.41;77.67
10720;BME280;5411;58.386;15.560;2023-04-19T06:02:39;102576.78;;;6.50;76.70
10720;BME280;5411;58.386;15.560;2023-04-19T06:05:18;102565.28;;;6.61;76.58
10720;BME280;5411;58.386;15.560;2023-04-19T06:07:53;102569.88;;;6.70;76.92
10720;BME280;5411;58.386;15.560;2023-04-19T06:10:28;102572.88;;;6.76;74.94
10720;BME280;5411;58.386;15.560;2023-04-19T06:13:17;102572.75;;;6.89;74.95
10720;BME280;5411;58.386;15.560;2023-04-19T06:15:50;102587.59;;;7.03;74.29
10720;BME280;5411;58.386;15.560;2023-04-19T06:18:20;102583.97;;;7.04;71.93
10720;BME280;5411;58.386;15.560;2023-04-19T06:20:51;102576.69;;;7.06;71.97
10720;BME280;5411;58.386;15.560;2023-04-19T06:23:30;102596.75;;;7.10;71.53
10720;BME280;5411;58.386;15.560;2023-04-19T06:26:00;102579.69;;;7.12;72.17
10720;BME280;5411;58.386;15.560;2023-04-19T06:28:29;102577.34;;;7.19;71.75
10720;BME280;5411;58.386;15.560;2023-04-19T06:31:01;102582.41;;;7.33;70.73
10720;BME280;5411;58.386;15.560;2023-04-19T06:33:36;102586.13;;;7.42;70.68
10720;BME280;5411;58.386;15.560;2023-04-19T06:36:25;102588.50;;;7.56;70.38
10720;BME280;5411;58.386;15.560;2023-04-19T06:38:57;102584.50;;;7.50;68.31
10720;BME280;5411;58.386;15.560;2023-04-19T06:41:27;102588.50;;;7.56;67.55
10720;BME280;5411;58.386;15.560;2023-04-19T06:43:56;102590.19;;;7.57;66.80
10720;BME280;5411;58.386;15.560;2023-04-19T06:46:29;102592.97;;;7.56;67.20
10720;BME280;5411;58.386;15.560;2023-04-19T06:48:58;102593.94;;;7.55;66.53
10720;BME280;5411;58.386;15.560;2023-04-19T06:51:49;102596.63;;;7.55;67.67
10720;BME280;5411;58.386;15.560;2023-04-19T06:54:19;102593.19;;;7.64;66.92
10720;BME280;5411;58.386;15.560;2023-04-19T06:56:52;102583.72;;;7.71;67.36
10720;BME280;5411;58.386;15.560;2023-04-19T06:59:22;102580.84;;;7.83;66.76
10720;BME280;5411;58.386;15.560;2023-04-19T07:01:58;102585.38;;;7.93;66.35
10720;BME280;5411;58.386;15.560;2023-04-19T07:04:28;102581.56;;;8.06;64.49
10720;BME280;5411;58.386;15.560;2023-04-19T07:06:57;102581.59;;;8.16;63.75
10720;BME280;5411;58.386;15.560;2023-04-19T07:09:31;102577.16;;;8.26;63.91
10720;BME280;5411;58.386;15.560;2023-04-19T07:12:02;102588.94;;;8.44;64.43
10720;BME280;5411;58.386;15.560;2023-04-19T07:14:36;102577.44;;;8.53;62.60
10720;BME280;5411;58.386;15.560;2023-04-19T07:17:14;102579.63;;;8.69;62.31
10720;BME280;5411;58.386;15.560;2023-04-19T07:19:46;102576.00;;;8.80;61.85
10720;BME280;5411;58.386;15.560;2023-04-19T07:22:19;102589.09;;;8.92;61.28
10720;BME280;5411;58.386;15.560;2023-04-19T07:24:50;102580.13;;;9.03;59.60
10720;BME280;5411;58.386;15.560;2023-04-19T07:27:20;102587.88;;;9.16;58.94
10720;BME280;5411;58.386;15.560;2023-04-19T07:29:51;102584.25;;;9.26;58.77
10720;BME280;5411;58.386;15.560;2023-04-19T07:32:22;102575.50;;;9.34;58.21
10720;BME280;5411;58.386;15.560;2023-04-19T07:34:52;102575.69;;;9.42;58.37
10720;BME280;5411;58.386;15.560;2023-04-19T07:37:24;102574.84;;;9.42;58.18
10720;BME280;5411;58.386;15.560;2023-04-19T07:39:55;102567.38;;;9.45;56.74
10720;BME280;5411;58.386;15.560;2023-04-19T07:42:24;102582.13;;;9.49;55.32
10720;BME280;5411;58.386;15.560;2023-04-19T07:44:56;102578.63;;;9.58;54.74
10720;BME280;5411;58.386;15.560;2023-04-19T07:47:27;102581.72;;;9.63;53.82
10720;BME280;5411;58.386;15.560;2023-04-19T07:49:57;102567.78;;;9.70;52.76
10720;BME280;5411;58.386;15.560;2023-04-19T07:52:27;102566.06;;;9.78;52.52
10720;BME280;5411;58.386;15.560;2023-04-19T07:54:58;102566.38;;;9.85;51.88
10720;BME280;5411;58.386;15.560;2023-04-19T07:57:27;102564.78;;;9.92;51.46
10720;BME280;5411;58.386;15.560;2023-04-19T07:59:58;102555.78;;;9.93;51.53
10720;BME280;5411;58.386;15.560;2023-04-19T08:02:30;102566.72;;;9.99;51.97
10720;BME280;5411;58.386;15.560;2023-04-19T08:05:02;102558.81;;;10.17;51.34
10720;BME280;5411;58.386;15.560;2023-04-19T08:07:36;102549.50;;;10.31;51.58
10720;BME280;5411;58.386;15.560;2023-04-19T08:10:07;102555.13;;;10.38;49.31
10720;BME280;5411;58.386;15.560;2023-04-19T08:12:37;102551.97;;;10.42;50.11
10720;BME280;5411;58.386;15.560;2023-04-19T08:15:27;102565.34;;;10.52;50.54
10720;BME280;5411;58.386;15.560;2023-04-19T08:18:01;102553.19;;;10.57;49.17
10720;BME280;5411;58.386;15.560;2023-04-19T08:20:33;102549.59;;;10.66;49.81
10720;BME280;5411;58.386;15.560;2023-04-19T08:23:03;102558.28;;;10.78;48.71
10720;BME280;5411;58.386;15.560;2023-04-19T08:25:50;102551.19;;;10.87;48.12
10720;BME280;5411;58.386;15.560;2023-04-19T08:28:19;102549.44;;;10.95;48.32
10720;BME280;5411;58.386;15.560;2023-04-19T08:30:49;102563.84;;;11.12;47.65
10720;BME280;5411;58.386;15.560;2023-04-19T08:33:20;102555.13;;;11.28;47.42
10720;BME280;5411;58.386;15.560;2023-04-19T08:35:52;102544.78;;;11.33;46.61
10720;BME280;5411;58.386;15.560;2023-04-19T08:38:21;102549.09;;;11.43;47.07
10720;BME280;5411;58.386;15.560;2023-04-19T08:40:54;102543.63;;;11.35;46.18
10720;BME280;5411;58.386;15.560;2023-04-19T08:43:34;102535.53;;;11.27;47.05
10720;BME280;5411;58.386;15.560;2023-04-19T08:46:07;102543.88;;;11.42;47.39
10720;BME280;5411;58.386;15.560;2023-04-19T08:48:40;102553.13;;;11.48;45.88
10720;BME280;5411;58.386;15.560;2023-04-19T08:51:20;102540.78;;;11.55;45.50
10720;BME280;5411;58.386;15.560;2023-04-19T08:53:51;102542.69;;;11.62;45.07
10720;BME280;5411;58.386;15.560;2023-04-19T08:56:25;102542.28;;;11.75;45.56
10720;BME280;5411;58.386;15.560;2023-04-19T08:59:01;102537.22;;;11.90;44.94
10720;BME280;5411;58.386;15.560;2023-04-19T09:01:37;102543.25;;;11.92;44.11
10720;BME280;5411;58.386;15.560;2023-04-19T09:04:11;102523.59;;;11.83;44.39
10720;BME280;5411;58.386;15.560;2023-04-19T09:07:00;102531.16;;;11.88;43.90
10720;BME280;5411;58.386;15.560;2023-04-19T09:09:29;102535.06;;;11.93;43.85
10720;BME280;5411;58.386;15.560;2023-04-19T09:12:15;102539.16;;;12.05;44.05
10720;BME280;5411;58.386;15.560;2023-04-19T09:14:53;102528.47;;;12.13;43.87
10720;BME280;5411;58.386;15.560;2023-04-19T09:17:28;102526.84;;;12.21;43.51
10720;BME280;5411;58.386;15.560;2023-04-19T09:20:00;102523.19;;;12.30;43.30
10720;BME280;5411;58.386;15.560;2023-04-19T09:22:30;102521.19;;;12.32;42.64
10720;BME280;5411;58.386;15.560;2023-04-19T09:24:59;102535.63;;;12.39;42.06
10720;BME280;5411;58.386;15.560;2023-04-19T09:27:48;102515.84;;;12.40;42.26
10720;BME280;5411;58.386;15.560;2023-04-19T09:30:21;102528.94;;;12.43;41.37
10720;BME280;5411;58.386;15.560;2023-04-19T09:33:01;102528.94;;;12.35;41.82
10720;BME280;5411;58.386;15.560;2023-04-19T09:35:41;102523.25;;;12.38;42.03
10720;BME280;5411;58.386;15.560;2023-04-19T09:38:10;102493.66;;;12.30;41.52
10720;BME280;5411;58.386;15.560;2023-04-19T09:40:42;102522.91;;;12.41;42.16
10720;BME280;5411;58.386;15.560;2023-04-19T09:43:22;102509.53;;;12.57;42.67
10720;BME280;5411;58.386;15.560;2023-04-19T09:46:05;102505.22;;;12.72;40.89
10720;BME280;5411;58.386;15.560;2023-04-19T09:48:34;102500.88;;;12.79;39.52
10720;BME280;5411;58.386;15.560;2023-04-19T09:51:06;102493.00;;;12.94;38.32
10720;BME280;5411;58.386;15.560;2023-04-19T09:53:41;102505.63;;;13.02;38.24
10720;BME280;5411;58.386;15.560;2023-04-19T09:56:11;102511.38;;;13.15;37.57
10720;BME280;5411;58.386;15.560;2023-04-19T09:58:39;102496.25;;;13.22;37.41
10720;BME280;5411;58.386;15.560;2023-04-19T10:01:23;102485.84;;;13.27;37.36
10720;BME280;5411;58.386;15.560;2023-04-19T10:03:56;102479.78;;;13.33;37.46
10720;BME280;5411;58.386;15.560;2023-04-19T10:06:47;102481.66;;;13.41;36.48
10720;BME280;5411;58.386;15.560;2023-04-19T10:09:40;102498.78;;;13.40;36.28
10720;BME280;5411;58.386;15.560;2023-04-19T10:12:22;102492.38;;;13.33;36.63
10720;BME280;5411;58.386;15.560;2023-04-19T10:14:56;102498.63;;;13.25;36.45
10720;BME280;5411;58.386;15.560;2023-04-19T10:17:25;102479.13;;;13.31;36.45
10720;BME280;5411;58.386;15.560;2023-04-19T10:19:58;102458.81;;;13.29;36.48
10720;BME280;5411;58.386;15.560;2023-04-19T10:22:31;102494.41;;;13.39;36.68
10720;BME280;5411;58.386;15.560;2023-04-19T10:25:09;102474.94;;;13.29;36.17
10720;BME280;5411;58.386;15.560;2023-04-19T10:27:39;102476.75;;;13.20;36.81
10720;BME280;5411;58.386;15.560;2023-04-19T10:30:19;102481.47;;;13.26;36.88
10720;BME280;5411;58.386;15.560;2023-04-19T10:32:51;102491.22;;;13.43;37.03
10720;BME280;5411;58.386;15.560;2023-04-19T10:35:24;102490.88;;;13.54;37.01
10720;BME280;5411;58.386;15.560;2023-04-19T10:38:05;102474.72;;;13.46;36.41
10720;BME280;5411;58.386;15.560;2023-04-19T10:40:53;102462.81;;;13.49;36.59
10720;BME280;5411;58.386;15.560;2023-04-19T10:43:23;102464.34;;;13.43;36.57
10720;BME280;5411;58.386;15.560;2023-04-19T10:45:52;102461.28;;;13.46;37.09
10720;BME280;5411;58.386;15.560;2023-04-19T10:48:48;102455.56;;;13.49;37.19
10720;BME280;5411;58.386;15.560;2023-04-19T10:51:23;102453.56;;;13.51;36.90
10720;BME280;5411;58.386;15.560;2023-04-19T10:53:56;102448.34;;;13.58;37.22
10720;BME280;5411;58.386;15.560;2023-04-19T10:56:57;102452.69;;;13.59;36.73
10720;BME280;5411;58.386;15.560;2023-04-19T10:59:29;102446.13;;;13.62;37.57
10720;BME280;5411;58.386;15.560;2023-04-19T11:02:01;102466.84;;;13.53;37.12
10720;BME280;5411;58.386;15.560;2023-04-19T11:07:38;102455.75;;;13.56;37.42
10720;BME280;5411;58.386;15.560;2023-04-19T11:10:10;102437.25;;;13.53;37.39
10720;BME280;5411;58.386;15.560;2023-04-19T11:12:43;102449.88;;;13.52;37.71
10720;BME280;5411;58.386;15.560;2023-04-19T11:15:12;102446.47;;;13.59;37.50
10720;BME280;5411;58.386;15.560;2023-04-19T11:17:41;102448.16;;;13.68;37.45
10720;BME280;5411;58.386;15.560;2023-04-19T11:20:27;102461.28;;;13.71;37.32
10720;BME280;5411;58.386;15.560;2023-04-19T11:22:55;102458.72;;;13.77;37.26
10720;BME280;5411;58.386;15.560;2023-04-19T11:25:28;102440.72;;;13.78;36.92
10720;BME280;5411;58.386;15.560;2023-04-19T11:28:01;102440.72;;;13.78;36.45
10720;BME280;5411;58.386;15.560;2023-04-19T11:30:30;102425.09;;;13.73;37.26
10720;BME280;5411;58.386;15.560;2023-04-19T11:33:00;102426.94;;;13.73;37.30
10720;BME280;5411;58.386;15.560;2023-04-19T11:35:30;102446.47;;;13.67;36.39
10720;BME280;5411;58.386;15.560;2023-04-19T11:38:02;102440.75;;;13.70;36.78
10720;BME280;5411;58.386;15.560;2023-04-19T11:40:33;102442.75;;;13.76;36.87
10720;BME280;5411;58.386;15.560;2023-04-19T11:43:03;102445.78;;;13.81;36.55
10720;BME280;5411;58.386;15.560;2023-04-19T11:45:38;102432.66;;;13.78;36.72
10720;BME280;5411;58.386;15.560;2023-04-19T11:48:13;102442.75;;;13.84;37.15
10720;BME280;5411;58.386;15.560;2023-04-19T11:50:43;102430.44;;;13.89;36.51
10720;BME280;5411;58.386;15.560;2023-04-19T11:53:20;102412.09;;;13.85;37.09
10720;BME280;5411;58.386;15.560;2023-04-19T11:55:53;102430.41;;;13.98;37.00
10720;BME280;5411;58.386;15.560;2023-04-19T11:58:25;102423.31;;;14.05;37.20
10720;BME280;5411;58.386;15.560;2023-04-19T12:01:01;102430.16;;;14.15;36.34
10720;BME280;5411;58.386;15.560;2023-04-19T12:03:45;102414.34;;;14.12;36.86
10720;BME280;5411;58.386;15.560;2023-04-19T12:06:25;102417.00;;;14.20;36.29
10720;BME280;5411;58.386;15.560;2023-04-19T12:08:56;102424.28;;;14.12;36.29
10720;BME280;5411;58.386;15.560;2023-04-19T12:11:41;102427.81;;;14.12;36.49
10720;BME280;5411;58.386;15.560;2023-04-19T12:14:12;102417.25;;;14.11;36.56
10720;BME280;5411;58.386;15.560;2023-04-19T12:16:43;102422.41;;;14.12;36.57
10720;BME280;5411;58.386;15.560;2023-04-19T12:19:15;102413.59;;;14.26;36.74
10720;BME280;5411;58.386;15.560;2023-04-19T12:21:45;102404.50;;;14.27;36.48
10720;BME280;5411;58.386;15.560;2023-04-19T12:24:15;102411.47;;;14.22;36.50
10720;BME280;5411;58.386;15.560;2023-04-19T12:26:54;102392.97;;;14.19;36.79
10720;BME280;5411;58.386;15.560;2023-04-19T12:29:27;102406.19;;;14.28;36.46
10720;BME280;5411;58.386;15.560;2023-04-19T12:31:56;102377.75;;;14.26;36.37
10720;BME280;5411;58.386;15.560;2023-04-19T12:34:27;102369.00;;;14.32;36.86
10720;BME280;5411;58.386;15.560;2023-04-19T12:36:56;102394.56;;;14.36;36.50
10720;BME280;5411;58.386;15.560;2023-04-19T12:39:25;102396.03;;;14.39;36.57
10720;BME280;5411;58.386;15.560;2023-04-19T12:41:56;102378.00;;;14.47;36.11
10720;BME280;5411;58.386;15.560;2023-04-19T12:44:26;102392.97;;;14.50;36.21
10720;BME280;5411;58.386;15.560;2023-04-19T12:47:00;102381.53;;;14.48;36.19
10720;BME280;5411;58.386;15.560;2023-04-19T12:49:53;102366.88;;;14.50;35.35
10720;BME280;5411;58.386;15.560;2023-04-19T12:52:44;102362.50;;;14.49;35.34
10720;BME280;5411;58.386;15.560;2023-04-19T12:55:24;102374.34;;;14.40;35.30
10720;BME280;5411;58.386;15.560;2023-04-19T12:57:55;102357.00;;;14.43;35.18
10720;BME280;5411;58.386;15.560;2023-04-19T13:00:25;102349.31;;;14.54;35.13
10720;BME280;5411;58.386;15.560;2023-04-19T13:02:56;102356.38;;;14.55;35.05
10720;BME280;5411;58.386;15.560;2023-04-19T13:05:31;102364.03;;;14.67;35.77
10720;BME280;5411;58.386;15.560;2023-04-19T13:08:17;102356.13;;;14.65;34.47
10720;BME280;5411;58.386;15.560;2023-04-19T13:11:05;102360.72;;;14.65;34.30
10720;BME280;5411;58.386;15.560;2023-04-19T13:13:48;102363.94;;;14.60;34.38
10720;BME280;5411;58.386;15.560;2023-04-19T13:16:25;102380.59;;;14.64;34.18
10720;BME280;5411;58.386;15.560;2023-04-19T13:19:23;102361.59;;;14.57;34.11
10720;BME280;5411;58.386;15.560;2023-04-19T13:21:56;102354.00;;;14.60;34.47
10720;BME280;5411;58.386;15.560;2023-04-19T13:24:33;102359.81;;;14.72;34.83
10720;BME280;5411;58.386;15.560;2023-04-19T13:27:03;102354.91;;;14.76;35.26
10720;BME280;5411;58.386;15.560;2023-04-19T13:29:57;102344.41;;;14.81;34.23
10720;BME280;5411;58.386;15.560;2023-04-19T13:32:26;102352.97;;;14.84;34.69